Austin, Texas
Traffic Map
Current Weather Conditions
Austin, Texas
Overcast
Overcast
79°
Feels Like: 82°
Wind Chill: 79° Ceiling: 2300
Heat Index: 82° Visibility: 7mi
Dew Point: 74° Wind: 6mph
Humidity: 84% Direction: ° ()
Pressure: 29.63in Gusts: 0mph
Raw Report DataKATT 300251Z AUTO VRB05KT 7SM OVC023 26/23 A2963 RMK AO2 SLP021 T02610233 52019
Traffic Incident Summary
Active as of:
Severity:
Category:
InformationThere was an issue retrieving the traffic information for this location. Please try a different location or try again shortly.
Advertisements
Track Severe Weather on mobile